sensor_id;sensor_type;location;lat;lon;timestamp;pressure;altitude;pressure_sealevel;temperature;humidity
68366;BME280;55283;51.466;5.478;2023-02-01T00:02:00;101908.72;;;19.57;42.42
68366;BME280;55283;51.466;5.478;2023-02-01T00:04:26;101915.53;;;19.56;42.48
68366;BME280;55283;51.466;5.478;2023-02-01T00:06:52;101907.91;;;19.53;42.68
68366;BME280;55283;51.466;5.478;2023-02-01T00:09:17;101899.53;;;19.53;42.67
68366;BME280;55283;51.466;5.478;2023-02-01T00:11:42;101891.97;;;19.50;42.63
68366;BME280;55283;51.466;5.478;2023-02-01T00:14:08;101897.56;;;19.50;42.84
68366;BME280;55283;51.466;5.478;2023-02-01T00:16:33;101903.53;;;19.49;42.74
68366;BME280;55283;51.466;5.478;2023-02-01T00:19:02;101901.16;;;19.51;42.75
68366;BME280;55283;51.466;5.478;2023-02-01T00:21:28;101879.59;;;19.48;42.86
68366;BME280;55283;51.466;5.478;2023-02-01T00:23:54;101868.78;;;19.53;42.69
68366;BME280;55283;51.466;5.478;2023-02-01T00:26:31;101870.38;;;19.51;42.77
68366;BME280;55283;51.466;5.478;2023-02-01T00:28:57;101857.25;;;19.44;42.91
68366;BME280;55283;51.466;5.478;2023-02-01T00:31:22;101866.41;;;19.48;42.83
68366;BME280;55283;51.466;5.478;2023-02-01T00:33:48;101873.56;;;19.49;42.85
68366;BME280;55283;51.466;5.478;2023-02-01T00:36:14;101868.00;;;19.45;42.99
68366;BME280;55283;51.466;5.478;2023-02-01T00:38:39;101869.25;;;19.41;42.90
68366;BME280;55283;51.466;5.478;2023-02-01T00:41:07;101866.47;;;19.41;42.99
68366;BME280;55283;51.466;5.478;2023-02-01T00:43:33;101859.25;;;19.43;42.93
68366;BME280;55283;51.466;5.478;2023-02-01T00:45:59;101846.09;;;19.37;42.88
68366;BME280;55283;51.466;5.478;2023-02-01T00:48:25;101865.63;;;19.44;42.86
68366;BME280;55283;51.466;5.478;2023-02-01T00:50:50;101871.22;;;19.44;42.97
68366;BME280;55283;51.466;5.478;2023-02-01T00:53:16;101871.63;;;19.42;42.77
68366;BME280;55283;51.466;5.478;2023-02-01T00:55:45;101871.22;;;19.44;42.94
68366;BME280;55283;51.466;5.478;2023-02-01T00:58:10;101859.72;;;19.35;43.01
68366;BME280;55283;51.466;5.478;2023-02-01T01:00:36;101869.63;;;19.43;42.95
68366;BME280;55283;51.466;5.478;2023-02-01T01:03:02;101867.66;;;19.43;42.66
68366;BME280;55283;51.466;5.478;2023-02-01T01:05:27;101875.22;;;19.43;42.83
68366;BME280;55283;51.466;5.478;2023-02-01T01:07:53;101878.44;;;19.41;43.01
68366;BME280;55283;51.466;5.478;2023-02-01T01:10:18;101885.22;;;19.44;42.97
68366;BME280;55283;51.466;5.478;2023-02-01T01:12:44;101876.50;;;19.35;42.86
68366;BME280;55283;51.466;5.478;2023-02-01T01:15:10;101886.41;;;19.43;42.81
68366;BME280;55283;51.466;5.478;2023-02-01T01:17:36;101899.19;;;19.40;42.78
68366;BME280;55283;51.466;5.478;2023-02-01T01:20:02;101880.81;;;19.43;42.90
68366;BME280;55283;51.466;5.478;2023-02-01T01:22:27;101880.88;;;19.36;42.84
68366;BME280;55283;51.466;5.478;2023-02-01T01:24:52;101881.59;;;19.47;42.74
68366;BME280;55283;51.466;5.478;2023-02-01T01:27:18;101866.47;;;19.41;42.82
68366;BME280;55283;51.466;5.478;2023-02-01T01:29:48;101865.63;;;19.44;42.94
68366;BME280;55283;51.466;5.478;2023-02-01T01:32:13;101858.06;;;19.41;42.94
68366;BME280;55283;51.466;5.478;2023-02-01T01:34:39;101872.84;;;19.41;42.85
68366;BME280;55283;51.466;5.478;2023-02-01T01:37:04;101859.28;;;19.36;42.67
68366;BME280;55283;51.466;5.478;2023-02-01T01:39:30;101868.84;;;19.42;42.91
68366;BME280;55283;51.466;5.478;2023-02-01T01:41:55;101859.28;;;19.36;42.90
68366;BME280;55283;51.466;5.478;2023-02-01T01:47:25;101884.03;;;19.41;42.91
68366;BME280;55283;51.466;5.478;2023-02-01T01:49:51;101868.88;;;19.32;42.92
68366;BME280;55283;51.466;5.478;2023-02-01T01:52:18;101871.69;;;19.32;42.99
68366;BME280;55283;51.466;5.478;2023-02-01T01:54:48;101872.53;;;19.25;42.97
68366;BME280;55283;51.466;5.478;2023-02-01T01:57:31;101893.25;;;19.35;42.86
68366;BME280;55283;51.466;5.478;2023-02-01T02:00:08;101883.25;;;19.41;42.98
68366;BME280;55283;51.466;5.478;2023-02-01T02:02:35;101888.03;;;19.37;43.08
68366;BME280;55283;51.466;5.478;2023-02-01T02:05:02;101891.63;;;19.37;42.96
68366;BME280;55283;51.466;5.478;2023-02-01T02:07:31;101891.63;;;19.37;43.07
68366;BME280;55283;51.466;5.478;2023-02-01T02:09:58;101881.25;;;19.38;42.99
68366;BME280;55283;51.466;5.478;2023-02-01T02:12:24;101879.69;;;19.33;42.94
68366;BME280;55283;51.466;5.478;2023-02-01T02:14:50;101877.66;;;19.41;43.02
68366;BME280;55283;51.466;5.478;2023-02-01T02:33:45;101840.53;;;19.33;43.08
68366;BME280;55283;51.466;5.478;2023-02-01T02:37:06;101846.53;;;19.32;43.27
68366;BME280;55283;51.466;5.478;2023-02-01T02:41:46;101842.53;;;19.33;42.80
68366;BME280;55283;51.466;5.478;2023-02-01T02:44:46;101828.19;;;19.27;43.30
68366;BME280;55283;51.466;5.478;2023-02-01T02:47:50;101831.03;;;19.23;43.14
68366;BME280;55283;51.466;5.478;2023-02-01T02:50:37;101845.38;;;19.29;43.10
68366;BME280;55283;51.466;5.478;2023-02-01T02:53:32;101842.97;;;19.28;43.03
68366;BME280;55283;51.466;5.478;2023-02-01T02:56:20;101833.03;;;19.19;43.37
68366;BME280;55283;51.466;5.478;2023-02-01T02:59:07;101833.44;;;19.21;43.06
68366;BME280;55283;51.466;5.478;2023-02-01T03:01:53;101842.56;;;19.26;43.21
68366;BME280;55283;51.466;5.478;2023-02-01T03:04:37;101839.41;;;19.23;43.22
68366;BME280;55283;51.466;5.478;2023-02-01T03:10:13;101828.22;;;19.23;43.14
68366;BME280;55283;51.466;5.478;2023-02-01T03:12:42;101822.66;;;19.16;43.29
68366;BME280;55283;51.466;5.478;2023-02-01T03:15:22;101825.03;;;19.21;43.28
68366;BME280;55283;51.466;5.478;2023-02-01T03:17:50;101815.84;;;19.25;43.07
68366;BME280;55283;51.466;5.478;2023-02-01T03:20:18;101817.41;;;19.26;43.21
68366;BME280;55283;51.466;5.478;2023-02-01T03:22:46;101829.03;;;19.24;43.25
68366;BME280;55283;51.466;5.478;2023-02-01T03:25:19;101817.84;;;19.24;43.14
68366;BME280;55283;51.466;5.478;2023-02-01T03:27:57;101818.63;;;19.25;43.17
68366;BME280;55283;51.466;5.478;2023-02-01T03:30:26;101814.63;;;19.26;43.10
68366;BME280;55283;51.466;5.478;2023-02-01T03:32:59;101829.41;;;19.26;43.04
68366;BME280;55283;51.466;5.478;2023-02-01T03:35:33;101836.97;;;19.29;43.08
68366;BME280;55283;51.466;5.478;2023-02-01T03:41:15;101803.94;;;19.13;43.11
68366;BME280;55283;51.466;5.478;2023-02-01T03:44:01;101813.84;;;19.25;42.85
68366;BME280;55283;51.466;5.478;2023-02-01T03:46:33;101813.84;;;19.21;43.02
68366;BME280;55283;51.466;5.478;2023-02-01T03:49:09;101808.28;;;19.21;42.92
68366;BME280;55283;51.466;5.478;2023-02-01T03:51:38;101807.84;;;19.27;43.05
68366;BME280;55283;51.466;5.478;2023-02-01T03:54:06;101811.81;;;19.26;42.82
68366;BME280;55283;51.466;5.478;2023-02-01T03:56:36;101805.88;;;19.23;43.08
68366;BME280;55283;51.466;5.478;2023-02-01T03:59:03;101810.25;;;19.25;42.77
68366;BME280;55283;51.466;5.478;2023-02-01T04:01:30;101816.63;;;19.25;42.92
68366;BME280;55283;51.466;5.478;2023-02-01T04:03:56;101813.03;;;19.25;42.80
68366;BME280;55283;51.466;5.478;2023-02-01T04:06:23;101803.91;;;19.20;43.03
68366;BME280;55283;51.466;5.478;2023-02-01T04:08:50;101801.09;;;19.17;42.38
68366;BME280;55283;51.466;5.478;2023-02-01T04:11:15;101796.66;;;19.23;42.81
68366;BME280;55283;51.466;5.478;2023-02-01T04:13:41;101787.56;;;19.15;42.92
68366;BME280;55283;51.466;5.478;2023-02-01T04:16:06;101795.06;;;19.26;42.84
68366;BME280;55283;51.466;5.478;2023-02-01T04:18:32;101789.09;;;19.23;43.06
68366;BME280;55283;51.466;5.478;2023-02-01T04:20:57;101793.09;;;19.19;43.34
68366;BME280;55283;51.466;5.478;2023-02-01T04:23:23;101787.59;;;19.12;43.33
68366;BME280;55283;51.466;5.478;2023-02-01T04:25:48;101792.72;;;19.20;43.20
68366;BME280;55283;51.466;5.478;2023-02-01T04:28:13;101783.97;;;19.15;43.21
68366;BME280;55283;51.466;5.478;2023-02-01T04:30:39;101789.53;;;19.18;43.02
68366;BME280;55283;51.466;5.478;2023-02-01T04:33:04;101800.63;;;19.29;42.98
68366;BME280;55283;51.466;5.478;2023-02-01T04:35:33;101801.78;;;19.32;42.88
68366;BME280;55283;51.466;5.478;2023-02-01T04:37:59;101795.06;;;19.26;42.77
68366;BME280;55283;51.466;5.478;2023-02-01T04:40:25;101819.34;;;19.36;42.82
68366;BME280;55283;51.466;5.478;2023-02-01T04:42:50;101803.38;;;19.36;42.80
68366;BME280;55283;51.466;5.478;2023-02-01T04:45:16;101799.34;;;19.37;42.79
68366;BME280;55283;51.466;5.478;2023-02-01T04:47:42;101801.00;;;19.35;42.86
68366;BME280;55283;51.466;5.478;2023-02-01T04:50:07;101807.38;;;19.35;42.91
68366;BME280;55283;51.466;5.478;2023-02-01T04:52:35;101812.19;;;19.35;42.93
68366;BME280;55283;51.466;5.478;2023-02-01T04:55:01;101797.03;;;19.29;42.93
68366;BME280;55283;51.466;5.478;2023-02-01T04:57:28;101815.38;;;19.33;42.89
68366;BME280;55283;51.466;5.478;2023-02-01T04:59:53;101816.94;;;19.34;42.82
68366;BME280;55283;51.466;5.478;2023-02-01T05:02:18;101820.19;;;19.33;42.93
68366;BME280;55283;51.466;5.478;2023-02-01T05:04:44;101820.53;;;19.38;42.84
68366;BME280;55283;51.466;5.478;2023-02-01T05:07:09;101823.75;;;19.33;42.77
68366;BME280;55283;51.466;5.478;2023-02-01T05:09:35;101817.38;;;19.33;42.81
68366;BME280;55283;51.466;5.478;2023-02-01T05:12:00;101822.19;;;19.32;42.72
68366;BME280;55283;51.466;5.478;2023-02-01T05:14:44;101826.56;;;19.33;42.86
68366;BME280;55283;51.466;5.478;2023-02-01T05:17:09;101822.97;;;19.33;43.14
68366;BME280;55283;51.466;5.478;2023-02-01T05:19:35;101817.78;;;19.31;43.00
68366;BME280;55283;51.466;5.478;2023-02-01T05:22:00;101814.16;;;19.34;42.88
68366;BME280;55283;51.466;5.478;2023-02-01T05:24:26;101814.19;;;19.31;43.01
68366;BME280;55283;51.466;5.478;2023-02-01T05:26:52;101813.41;;;19.30;43.03
68366;BME280;55283;51.466;5.478;2023-02-01T05:29:18;101799.00;;;19.32;42.75
68366;BME280;55283;51.466;5.478;2023-02-01T05:31:46;101799.44;;;19.30;42.83
68366;BME280;55283;51.466;5.478;2023-02-01T05:34:12;101809.81;;;19.30;42.90
68366;BME280;55283;51.466;5.478;2023-02-01T05:36:38;101793.06;;;19.26;42.89
68366;BME280;55283;51.466;5.478;2023-02-01T05:39:03;101795.41;;;19.31;42.80
68366;BME280;55283;51.466;5.478;2023-02-01T05:41:29;101805.81;;;19.31;42.92
68366;BME280;55283;51.466;5.478;2023-02-01T05:43:54;101797.41;;;19.31;42.92
68366;BME280;55283;51.466;5.478;2023-02-01T05:46:20;101803.84;;;19.28;42.69
68366;BME280;55283;51.466;5.478;2023-02-01T05:48:45;101796.66;;;19.27;42.96
68366;BME280;55283;51.466;5.478;2023-02-01T05:51:11;101797.09;;;19.21;42.96
68366;BME280;55283;51.466;5.478;2023-02-01T05:53:36;101815.00;;;19.28;43.18
68366;BME280;55283;51.466;5.478;2023-02-01T05:56:03;101816.63;;;19.25;43.04
68366;BME280;55283;51.466;5.478;2023-02-01T05:58:29;101827.41;;;19.27;42.73
68366;BME280;55283;51.466;5.478;2023-02-01T06:00:54;101818.22;;;19.26;43.20
68366;BME280;55283;51.466;5.478;2023-02-01T06:03:20;101821.81;;;19.23;43.13
68366;BME280;55283;51.466;5.478;2023-02-01T06:05:47;101824.63;;;19.23;42.99
68366;BME280;55283;51.466;5.478;2023-02-01T06:08:13;101825.44;;;19.23;43.14
68366;BME280;55283;51.466;5.478;2023-02-01T06:10:39;101809.03;;;19.26;43.06
68366;BME280;55283;51.466;5.478;2023-02-01T06:13:05;101816.22;;;19.27;43.17
68366;BME280;55283;51.466;5.478;2023-02-01T06:15:30;101805.03;;;19.27;43.10
68366;BME280;55283;51.466;5.478;2023-02-01T06:17:56;101811.44;;;19.27;43.04
68366;BME280;55283;51.466;5.478;2023-02-01T06:20:22;101812.63;;;19.30;42.97
68366;BME280;55283;51.466;5.478;2023-02-01T06:22:47;101826.94;;;19.35;42.85
68366;BME280;55283;51.466;5.478;2023-02-01T06:25:13;101823.75;;;19.33;42.99
68366;BME280;55283;51.466;5.478;2023-02-01T06:27:38;101811.03;;;19.25;43.04
68366;BME280;55283;51.466;5.478;2023-02-01T06:30:05;101811.00;;;19.32;43.02
68366;BME280;55283;51.466;5.478;2023-02-01T06:32:31;101826.16;;;19.35;43.06
68366;BME280;55283;51.466;5.478;2023-02-01T06:34:57;101823.34;;;19.38;43.14
68366;BME280;55283;51.466;5.478;2023-02-01T06:37:23;101822.09;;;19.43;42.91
68366;BME280;55283;51.466;5.478;2023-02-01T06:39:54;101830.13;;;19.41;43.21
68366;BME280;55283;51.466;5.478;2023-02-01T06:42:20;101818.16;;;19.33;43.26
68366;BME280;55283;51.466;5.478;2023-02-01T06:44:45;101832.53;;;19.32;43.36
68366;BME280;55283;51.466;5.478;2023-02-01T06:47:10;101824.63;;;19.27;43.50
68366;BME280;55283;51.466;5.478;2023-02-01T06:49:36;101832.63;;;19.21;43.89
68366;BME280;55283;51.466;5.478;2023-02-01T06:52:02;101836.22;;;19.21;43.94
68366;BME280;55283;51.466;5.478;2023-02-01T06:54:28;101831.06;;;19.16;44.05
68366;BME280;55283;51.466;5.478;2023-02-01T06:56:54;101837.03;;;19.18;44.08
68366;BME280;55283;51.466;5.478;2023-02-01T06:59:20;101826.72;;;19.08;44.21
68366;BME280;55283;51.466;5.478;2023-02-01T07:01:45;101834.59;;;19.28;44.60
68366;BME280;55283;51.466;5.478;2023-02-01T07:04:11;101834.09;;;19.40;43.99
68366;BME280;55283;51.466;5.478;2023-02-01T07:06:38;101839.69;;;19.43;44.17
68366;BME280;55283;51.466;5.478;2023-02-01T07:09:03;101838.47;;;19.44;44.19
68366;BME280;55283;51.466;5.478;2023-02-01T07:11:29;101826.50;;;19.40;45.09
68366;BME280;55283;51.466;5.478;2023-02-01T07:13:55;101840.81;;;19.53;44.70
68366;BME280;55283;51.466;5.478;2023-02-01T07:16:21;101830.84;;;19.52;45.18
68366;BME280;55283;51.466;5.478;2023-02-01T07:18:48;101831.19;;;19.54;45.03
68366;BME280;55283;51.466;5.478;2023-02-01T07:21:14;101833.72;;;19.38;44.26
68366;BME280;55283;51.466;5.478;2023-02-01T07:23:39;101824.28;;;19.17;38.28
68366;BME280;55283;51.466;5.478;2023-02-01T07:26:06;101835.94;;;19.02;37.82
68366;BME280;55283;51.466;5.478;2023-02-01T07:28:34;101826.88;;;18.80;37.93
68366;BME280;55283;51.466;5.478;2023-02-01T07:31:08;101828.50;;;18.63;37.20
68366;BME280;55283;51.466;5.478;2023-02-01T07:33:34;101844.47;;;18.59;35.75
68366;BME280;55283;51.466;5.478;2023-02-01T07:36:02;101844.47;;;18.55;37.52
68366;BME280;55283;51.466;5.478;2023-02-01T07:38:28;101840.47;;;18.63;37.82
68366;BME280;55283;51.466;5.478;2023-02-01T07:41:01;101836.88;;;18.63;39.54
68366;BME280;55283;51.466;5.478;2023-02-01T07:43:28;101826.09;;;18.65;41.01
68366;BME280;55283;51.466;5.478;2023-02-01T07:45:54;101838.03;;;18.76;41.92
68366;BME280;55283;51.466;5.478;2023-02-01T07:48:20;101849.56;;;18.85;41.71
68366;BME280;55283;51.466;5.478;2023-02-01T07:50:45;101844.34;;;18.91;41.71
68366;BME280;55283;51.466;5.478;2023-02-01T07:53:11;101849.50;;;18.99;41.85
68366;BME280;55283;51.466;5.478;2023-02-01T07:55:40;101854.69;;;19.01;41.97
68366;BME280;55283;51.466;5.478;2023-02-01T07:58:06;101851.47;;;19.03;41.87
68366;BME280;55283;51.466;5.478;2023-02-01T08:00:31;101853.09;;;19.04;41.80
68366;BME280;55283;51.466;5.478;2023-02-01T08:03:15;101843.09;;;19.06;42.12
68366;BME280;55283;51.466;5.478;2023-02-01T08:05:41;101835.53;;;19.03;42.09
68366;BME280;55283;51.466;5.478;2023-02-01T08:08:07;101860.63;;;19.10;42.01
68366;BME280;55283;51.466;5.478;2023-02-01T08:10:33;101852.25;;;19.10;40.81
68366;BME280;55283;51.466;5.478;2023-02-01T08:13:00;101869.06;;;19.03;38.66
68366;BME280;55283;51.466;5.478;2023-02-01T08:15:27;101867.47;;;18.98;38.89
68366;BME280;55283;51.466;5.478;2023-02-01T08:17:52;101858.34;;;18.94;38.98
68366;BME280;55283;51.466;5.478;2023-02-01T08:20:20;101870.25;;;19.02;40.31
68366;BME280;55283;51.466;5.478;2023-02-01T08:22:50;101871.88;;;19.03;40.76
68366;BME280;55283;51.466;5.478;2023-02-01T08:25:15;101871.03;;;19.10;40.91
68366;BME280;55283;51.466;5.478;2023-02-01T08:27:41;101869.00;;;19.14;41.72
68366;BME280;55283;51.466;5.478;2023-02-01T08:30:08;101848.66;;;19.10;41.51
68366;BME280;55283;51.466;5.478;2023-02-01T08:32:34;101873.78;;;19.20;41.52
68366;BME280;55283;51.466;5.478;2023-02-01T08:35:00;101870.16;;;19.23;41.72
68366;BME280;55283;51.466;5.478;2023-02-01T08:37:26;101859.78;;;19.17;41.70
68366;BME280;55283;51.466;5.478;2023-02-01T08:39:51;101866.56;;;19.19;42.02
68366;BME280;55283;51.466;5.478;2023-02-01T08:42:17;101868.09;;;19.31;41.54
68366;BME280;55283;51.466;5.478;2023-02-01T08:45:02;101860.13;;;19.30;41.53
68366;BME280;55283;51.466;5.478;2023-02-01T08:47:28;101872.09;;;19.34;41.52
68366;BME280;55283;51.466;5.478;2023-02-01T08:49:54;101864.91;;;19.33;41.86
68366;BME280;55283;51.466;5.478;2023-02-01T08:52:20;101872.88;;;19.38;41.92
68366;BME280;55283;51.466;5.478;2023-02-01T08:54:46;101878.88;;;19.36;41.84
68366;BME280;55283;51.466;5.478;2023-02-01T08:57:11;101865.28;;;19.38;41.92
68366;BME280;55283;51.466;5.478;2023-02-01T08:59:37;101863.28;;;19.39;41.81
68366;BME280;55283;51.466;5.478;2023-02-01T09:02:02;101860.88;;;19.37;42.66
68366;BME280;55283;51.466;5.478;2023-02-01T09:04:28;101853.69;;;19.36;42.98
68366;BME280;55283;51.466;5.478;2023-02-01T09:06:53;101851.28;;;19.38;42.57
68366;BME280;55283;51.466;5.478;2023-02-01T09:09:21;101852.91;;;19.36;42.52
68366;BME280;55283;51.466;5.478;2023-02-01T09:11:46;101833.75;;;19.31;42.95
68366;BME280;55283;51.466;5.478;2023-02-01T09:14:12;101851.66;;;19.44;42.36
68366;BME280;55283;51.466;5.478;2023-02-01T09:16:37;101839.22;;;19.49;42.06
68366;BME280;55283;51.466;5.478;2023-02-01T09:19:02;101841.63;;;19.50;42.52
68366;BME280;55283;51.466;5.478;2023-02-01T09:21:28;101826.50;;;19.44;42.56
68366;BME280;55283;51.466;5.478;2023-02-01T09:23:54;101834.78;;;19.55;42.80
68366;BME280;55283;51.466;5.478;2023-02-01T09:26:19;101836.78;;;19.58;42.80
68366;BME280;55283;51.466;5.478;2023-02-01T09:28:45;101829.97;;;19.62;42.91
68366;BME280;55283;51.466;5.478;2023-02-01T09:31:10;101823.59;;;19.62;42.94
68366;BME280;55283;51.466;5.478;2023-02-01T09:33:36;101831.53;;;19.67;43.15
68366;BME280;55283;51.466;5.478;2023-02-01T09:36:03;101816.81;;;19.59;42.92
68366;BME280;55283;51.466;5.478;2023-02-01T09:38:30;101824.78;;;19.64;43.29
68366;BME280;55283;51.466;5.478;2023-02-01T09:40:56;101834.34;;;19.67;43.23
68366;BME280;55283;51.466;5.478;2023-02-01T09:46:32;101843.44;;;19.75;43.25
68366;BME280;55283;51.466;5.478;2023-02-01T09:49:03;101851.47;;;19.73;43.24
68366;BME280;55283;51.466;5.478;2023-02-01T09:51:43;101843.09;;;19.73;43.21
68366;BME280;55283;51.466;5.478;2023-02-01T09:57:03;101847.91;;;19.68;42.96
68366;BME280;55283;51.466;5.478;2023-02-01T09:59:33;101849.50;;;19.66;42.95
68366;BME280;55283;51.466;5.478;2023-02-01T10:02:08;101822.00;;;19.57;43.16
68366;BME280;55283;51.466;5.478;2023-02-01T10:04:35;101819.56;;;19.63;43.45
68366;BME280;55283;51.466;5.478;2023-02-01T10:12:29;101838.28;;;19.70;43.74
68366;BME280;55283;51.466;5.478;2023-02-01T10:25:30;101870.97;;;19.83;43.89
68366;BME280;55283;51.466;5.478;2023-02-01T10:28:00;101862.94;;;19.85;44.11
68366;BME280;55283;51.466;5.478;2023-02-01T10:30:37;101851.81;;;19.82;44.08
68366;BME280;55283;51.466;5.478;2023-02-01T10:33:24;101846.19;;;19.82;43.89
68366;BME280;55283;51.466;5.478;2023-02-01T10:36:00;101870.59;;;19.78;43.80
68366;BME280;55283;51.466;5.478;2023-02-01T10:38:30;101857.88;;;19.73;43.12
68366;BME280;55283;51.466;5.478;2023-02-01T10:41:03;101879.00;;;19.78;43.92
68366;BME280;55283;51.466;5.478;2023-02-01T10:43:35;101873.03;;;19.76;43.44
68366;BME280;55283;51.466;5.478;2023-02-01T10:46:00;101871.81;;;19.77;43.52
68366;BME280;55283;51.466;5.478;2023-02-01T10:48:26;101869.03;;;19.77;43.73
68366;BME280;55283;51.466;5.478;2023-02-01T10:50:56;101865.41;;;19.80;43.56
68366;BME280;55283;51.466;5.478;2023-02-01T10:56:09;101855.84;;;19.74;43.28
68366;BME280;55283;51.466;5.478;2023-02-01T10:58:36;101840.34;;;19.65;43.69
68366;BME280;55283;51.466;5.478;2023-02-01T11:01:09;101843.06;;;19.76;43.71
68366;BME280;55283;51.466;5.478;2023-02-01T11:03:41;101840.25;;;19.76;43.43
68366;BME280;55283;51.466;5.478;2023-02-01T11:06:40;101845.38;;;19.85;43.50
68366;BME280;55283;51.466;5.478;2023-02-01T11:11:31;101835.44;;;19.77;43.39
68366;BME280;55283;51.466;5.478;2023-02-01T11:14:13;101823.50;;;19.73;42.86
68366;BME280;55283;51.466;5.478;2023-02-01T11:16:39;101823.88;;;19.75;43.25
68366;BME280;55283;51.466;5.478;2023-02-01T11:19:05;101817.13;;;19.68;43.30
68366;BME280;55283;51.466;5.478;2023-02-01T11:21:32;101805.66;;;19.52;43.65
68366;BME280;55283;51.466;5.478;2023-02-01T11:24:03;101808.06;;;19.50;43.94
68366;BME280;55283;51.466;5.478;2023-02-01T11:26:30;101793.72;;;19.44;44.41
68366;BME280;55283;51.466;5.478;2023-02-01T11:29:08;101810.53;;;19.37;44.72
68366;BME280;55283;51.466;5.478;2023-02-01T11:31:35;101793.75;;;19.37;44.93
68366;BME280;55283;51.466;5.478;2023-02-01T11:34:08;101806.19;;;19.33;44.69
68366;BME280;55283;51.466;5.478;2023-02-01T11:36:37;101798.13;;;19.42;45.07
68366;BME280;55283;51.466;5.478;2023-02-01T11:41:55;101809.66;;;19.51;44.80
68366;BME280;55283;51.466;5.478;2023-02-01T11:44:33;101807.63;;;19.52;45.21
68366;BME280;55283;51.466;5.478;2023-02-01T11:49:55;101790.41;;;19.60;45.21
68366;BME280;55283;51.466;5.478;2023-02-01T12:05:38;101791.94;;;19.68;44.63
68366;BME280;55283;51.466;5.478;2023-02-01T12:08:11;101787.94;;;19.70;44.28
68366;BME280;55283;51.466;5.478;2023-02-01T12:22:08;101777.56;;;19.70;44.11
68366;BME280;55283;51.466;5.478;2023-02-01T12:27:42;101786.34;;;19.68;44.09
68366;BME280;55283;51.466;5.478;2023-02-01T12:38:52;101776.78;;;19.66;44.04
68366;BME280;55283;51.466;5.478;2023-02-01T12:41:33;101787.97;;;19.66;44.30
68366;BME280;55283;51.466;5.478;2023-02-01T12:44:12;101784.00;;;19.63;44.24
68366;BME280;55283;51.466;5.478;2023-02-01T12:46:56;101772.09;;;19.52;44.35
68366;BME280;55283;51.466;5.478;2023-02-01T12:49:35;101775.69;;;19.53;43.25
68366;BME280;55283;51.466;5.478;2023-02-01T12:52:09;101768.88;;;19.54;43.63
68366;BME280;55283;51.466;5.478;2023-02-01T12:54:45;101774.06;;;19.52;44.64
68366;BME280;55283;51.466;5.478;2023-02-01T12:57:22;101763.38;;;19.43;44.76
68366;BME280;55283;51.466;5.478;2023-02-01T13:02:57;101765.81;;;19.41;44.61
68366;BME280;55283;51.466;5.478;2023-02-01T13:06:08;101767.38;;;19.42;44.83
68366;BME280;55283;51.466;5.478;2023-02-01T13:11:19;101749.47;;;19.36;44.68
68366;BME280;55283;51.466;5.478;2023-02-01T13:13:55;101771.03;;;19.32;44.89
68366;BME280;55283;51.466;5.478;2023-02-01T13:16:27;101749.88;;;19.31;45.00
68366;BME280;55283;51.466;5.478;2023-02-01T13:22:00;101748.69;;;19.32;44.57
68366;BME280;55283;51.466;5.478;2023-02-01T13:24:38;101750.69;;;19.31;44.50
68366;BME280;55283;51.466;5.478;2023-02-01T13:27:08;101757.78;;;19.47;44.42
68366;BME280;55283;51.466;5.478;2023-02-01T13:29:35;101748.16;;;19.48;44.42
68366;BME280;55283;51.466;5.478;2023-02-01T13:34:53;101762.53;;;19.46;44.24
68366;BME280;55283;51.466;5.478;2023-02-01T13:43:27;101748.66;;;19.35;44.34
68366;BME280;55283;51.466;5.478;2023-02-01T13:45:54;101768.16;;;19.42;44.18
68366;BME280;55283;51.466;5.478;2023-02-01T13:48:25;101758.56;;;19.47;44.35
68366;BME280;55283;51.466;5.478;2023-02-01T13:50:55;101764.94;;;19.48;44.12
68366;BME280;55283;51.466;5.478;2023-02-01T13:56:00;101768.53;;;19.48;43.88
68366;BME280;55283;51.466;5.478;2023-02-01T13:58:35;101764.97;;;19.44;44.09
68366;BME280;55283;51.466;5.478;2023-02-01T14:03:59;101768.72;;;19.23;44.61
68366;BME280;55283;51.466;5.478;2023-02-01T14:11:36;101783.38;;;19.41;44.36
68366;BME280;55283;51.466;5.478;2023-02-01T14:16:43;101770.72;;;19.26;44.45
68366;BME280;55283;51.466;5.478;2023-02-01T14:19:30;101783.44;;;19.31;44.44
68366;BME280;55283;51.466;5.478;2023-02-01T14:24:56;101776.25;;;19.33;44.31
68366;BME280;55283;51.466;5.478;2023-02-01T14:27:25;101795.75;;;19.40;44.45
68366;BME280;55283;51.466;5.478;2023-02-01T14:30:05;101782.94;;;19.43;44.26
68366;BME280;55283;51.466;5.478;2023-02-01T14:32:37;101775.81;;;19.38;44.09
68366;BME280;55283;51.466;5.478;2023-02-01T14:35:25;101777.41;;;19.36;44.19
68366;BME280;55283;51.466;5.478;2023-02-01T14:37:54;101786.94;;;19.42;44.12
68366;BME280;55283;51.466;5.478;2023-02-01T14:40:26;101784.22;;;19.35;43.99
68366;BME280;55283;51.466;5.478;2023-02-01T14:42:54;101782.19;;;19.39;43.88
68366;BME280;55283;51.466;5.478;2023-02-01T14:53:06;101794.13;;;19.47;43.84
68366;BME280;55283;51.466;5.478;2023-02-01T15:01:20;101788.56;;;19.39;44.25
68366;BME280;55283;51.466;5.478;2023-02-01T15:04:17;101792.16;;;19.40;44.39
68366;BME280;55283;51.466;5.478;2023-02-01T15:09:29;101808.09;;;19.47;43.96
68366;BME280;55283;51.466;5.478;2023-02-01T15:14:34;101781.03;;;19.33;43.95
68366;BME280;55283;51.466;5.478;2023-02-01T15:17:00;101795.75;;;19.40;43.96
68366;BME280;55283;51.466;5.478;2023-02-01T15:19:27;101802.88;;;19.49;43.68
68366;BME280;55283;51.466;5.478;2023-02-01T15:21:55;101800.84;;;19.56;43.61
68366;BME280;55283;51.466;5.478;2023-02-01T15:24:27;101807.19;;;19.60;43.58
68366;BME280;55283;51.466;5.478;2023-02-01T15:26:54;101806.81;;;19.62;43.45
68366;BME280;55283;51.466;5.478;2023-02-01T15:29:21;101807.59;;;19.62;43.67
68366;BME280;55283;51.466;5.478;2023-02-01T15:31:49;101807.19;;;19.60;43.40